Home Place, Louisiana
Current Conditions -  °F | °C
As of 10:01 AM on Sunday 23 Nov 2014 (Local Time) from K1B7 Reporting Station
Haze Haze  
Wind Chill: 64°   Ceiling: 8000
Heat Index: 64°   Visibility: 5mi
Dew Point: 63°   Wind: 17mph
Humidity: 94%   Direction: 220°SW
Pressure: 29.78"   Gusts: NA
Location:  29.4927°N, 89.8165°W
Report Text: K1B7 231601Z 22015KT 5SM BR SCT036 SCT049 BKN080 18/17 A2978
Loading
Personal Weather Stations






























Interactive Weather Map New forecast layout! Learn more

10-Day Weather Forecast

Advertisements
Track Severe Weather on mobile